• Join FlightAware (Why Join?)
  • Login
  • US Flag 
Trick or treat! (Boo!!) 
04:35AM EDT


 

Airport Tracker/Info


-or-


 

Live Flight TrackerFlight Track Log ✈ DAL6232 ✈ 07-Oct-2013 ✈ KLGA - KPIT

Flight Track Log - Related Links

Times and Time Zones

All times are in EDT time to prevent confusion due to time zone crossing. See the DAL6232 flight status page for this flight to view local times or setup timezone preferences in your user account.

Time Position Orientation Groundspeed Altitude Reporting Facility
EDT Latitude Longitude Course Direction KTS MPH feet Rate Location/Type
11:17AM 40.7500 -73.8333 245° Southwest 124 143 2,000  Level New York TRACON
11:18AM 40.7167 -73.8333 180° South 158 182 3,600 1,920 Climbing New York TRACON
11:19AM 40.7167 -73.8833 270° West 251 289 5,900 2,160 Climbing New York TRACON
11:20AM 40.7833 -73.9333 330° Northwest 300 345 8,000 2,280 Climbing New York TRACON
11:21AM 40.8333 -74.0167 308° West 288 331 10,500 2,160 Climbing New York TRACON
11:22AM 40.8333 -74.1333 270° West 293 337 12,600 1,740 Climbing New York TRACON
11:23AM 40.7612 -74.6495 245° Southwest  Level Estimated
11:23AM 40.8333 -74.2333 270° West 338 389 14,000  Level New York TRACON
11:24AM 40.8333 -74.3833 270° West 345 397 16,000 1,320 Climbing New York TRACON
11:25AM 40.8167 -74.5167 261° West 350 403 17,000 480 Climbing New York TRACON
11:26AM 40.8167 -74.6333 270° West 351 404 17,000 120 Level New York TRACON
11:27AM 40.8172 -74.7606 270° West 352 405 17,300 1,020 Climbing New York Center
11:28AM 40.8128 -74.8892 267° West 352 405 19,100 1,560 Climbing New York Center
11:29AM 40.8086 -75.0069 267° West 357 411 20,500 1,260 Climbing New York Center
11:30AM 40.8017 -75.1408 266° West 362 417 21,700 1,200 Climbing New York Center
11:31AM 40.7794 -75.2847 259° West 368 423 22,900 1,200 Climbing New York Center
11:32AM 40.7517 -75.4142 254° West 368 423 24,100 1,200 Climbing New York Center
11:33AM 40.7114 -75.5347 246° West 368 423 25,300 1,140 Climbing New York Center
11:34AM 40.6647 -75.6572 243° Southwest 374 430 26,400 960 Climbing New York Center
11:35AM 40.6225 -75.7692 244° Southwest 374 430 27,300 780 Climbing New York Center
11:36AM 40.5756 -75.8914 243° Southwest 379 436 28,000 720 Climbing New York Center
11:37AM 40.5172 -76.0319 241° Southwest 384 442 28,800 720 Climbing New York Center
11:38AM 40.4697 -76.1592 244° Southwest 396 456 29,500 600 Climbing New York Center
11:39AM 40.4200 -76.2889 243° Southwest 396 456 30,000 240 Climbing New York Center
11:40AM 40.3772 -76.4000 243° Southwest 396 456 30,000  Level New York Center
11:41AM 40.3275 -76.5267 243° Southwest 396 456 30,000  Level New York Center
11:42AM 40.2936 -76.6625 252° West 396 456 30,000  Level New York Center
11:43AM 40.2594 -76.8011 252° West 396 456 30,000  Level New York Center
11:44AM 40.2256 -76.9369 252° West 396 456 30,000  Level New York Center
11:45AM 40.1933 -77.0728 253° West 396 456 30,000  Level New York Center
11:46AM 40.1589 -77.2081 252° West 396 456 30,000 -180 Level New York Center
11:47AM 40.1236 -77.3542 253° West 396 456 29,700 -1,200 Descending New York Center
11:48AM 40.0936 -77.4817 253° West 402 463 27,700 -2,160 Descending New York Center
11:50AM 40.0283 -77.7372 252° West 374 430 23,600 -1,980 Descending Cleveland Center
11:51AM 39.9972 -77.8564 251° West 353 406 22,100 -780 Descending Cleveland Center
11:52AM 39.9731 -77.9783 256° West 351 404 22,000 -60 Descending Cleveland Center
11:53AM 39.9792 -78.1122 273° West 369 425 22,000  Level Cleveland Center
11:54AM 39.9983 -78.2494 280° West 385 443 22,000  Level Cleveland Center
11:55AM 40.0178 -78.3847 281° West 364 419 22,000  Level Cleveland Center
11:56AM 40.0356 -78.5131 280° West 360 414 22,000  Level Cleveland Center
11:57AM 40.0542 -78.6453 280° West 368 423 22,000 -900 Level Cleveland Center
11:58AM 40.0753 -78.8042 280° West 371 427 20,200 -1,680 Descending Cleveland Center
11:59AM 40.0925 -78.9256 281° West 346 398 18,600 -1,560 Descending Cleveland Center
12:01PM 40.1072 -79.0400 280° West 323 372 17,100 -1,500 Descending Cleveland Center
12:02PM 40.1239 -79.1594 280° West 334 384 15,600 -1,500 Descending Cleveland Center
12:03PM 40.1400 -79.2828 280° West 343 395 14,100 -1,560 Descending Cleveland Center
12:04PM 40.1572 -79.4094 280° West 333 383 12,500 -1,500 Descending Cleveland Center
12:05PM 40.1722 -79.5233 280° West 323 372 11,100 -1,200 Descending Cleveland Center
12:06PM 40.1864 -79.6361 279° West 314 361 10,100 -600 Descending Cleveland Center
12:07PM 40.2042 -79.7361 283° West 287 330 9,900 -840 Descending Cleveland Center
12:08PM 40.2400 -79.8108 302° West 258 297 8,400 -1,620 Descending Cleveland Center
12:09PM 40.3139 -79.8753 326° Northwest 268 308 6,600 -1,620 Descending Cleveland Center
12:10PM 40.3783 -79.9317 326° Northwest 278 320 5,100 -1,200 Descending Cleveland Center
12:11PM 40.4364 -79.9822 326° Northwest 262 302 4,200 -1,020 Descending Cleveland Center
12:12PM 40.4742 -80.0403 311° West 222 255 3,100 -720 Descending Cleveland Center
12:13PM 40.4819 -80.1006 280° West 174 200 2,800 -540 Descending Cleveland Center
12:14PM 40.4833 -80.1589 272° West 145 167 2,000 -840 Descending Cleveland Center
12:16PM 40.4833 -80.2167 303° West  Level FlightAware Approximate
12:23PM 40.4914 -80.2327 303° West  Level Estimated